Rapports des METAR proches

 

LFAQ - Bray, France
Distance from station: SSO 19km
Mise à jour: 07/04/2020 17:30
Clair
Clair
 Vent E
Vent: E 19 km/h
Température: 21°C
Point de rosée: 11°C
Humidité: 53%
Baromètre: 1026 hPa
Résumé: Clair
Visibility: greater than 10 km
2020/04/07 15:30 LFAQ 071530Z AUTO 08010KT CAVOK 21/11 Q1026
LFQQ - Lille/Lesquin, France
Distance from station: NNE 53km
Mise à jour: 07/04/2020 17:30
Clair
Clair
 Vent NE
Vent: NE 15 km/h
Température: 20°C
Point de rosée: 8°C
Humidité: 46%
Baromètre: 1027 hPa
Résumé: Clair
Visibility: greater than 10 km
2020/04/07 15:30 LFQQ 071530Z AUTO 05008KT 020V100 CAVOK 20/08 Q1027 NOSIG
EBCV - Chievres Ab, Belgium
Distance from station: NE 88km
Mise à jour: 07/04/2020 17:25
Clair
Clair
 Vent ENE
Vent: ENE 17 km/h
Température: 20°C
Point de rosée: 10°C
Humidité: 53%
Baromètre: 1027 hPa
Clouds: Clair
Visibility: 10 km
2020/04/07 15:25 EBCV 071525Z AUTO 06009KT 9999 NCD 20/10 Q1027 BLU
 
LFOB - Beauvais/Tille(A, France
Distance from station: SSO 88km
Mise à jour: 07/04/2020 17:30
Clair
Clair
 Vent E
Vent: E 17 km/h
Température: 20°C
Point de rosée: 10°C
Humidité: 53%
Baromètre: 1026 hPa
Résumé: Clair
Visibility: greater than 10 km
2020/04/07 15:30 LFOB 071530Z AUTO 08009KT 050V110 CAVOK 20/10 Q1026
LFAT - Le Touquet/P. Pl, France
Distance from station: ONO 93km
Mise à jour: 07/04/2020 17:30
Clair
Clair
 Vent E
Vent: E 13 km/h
Température: 20°C
Point de rosée: 8°C
Humidité: 46%
Baromètre: 1027 hPa
Résumé: Clair
Visibility: greater than 10 km
2020/04/07 15:30 LFAT 071530Z AUTO 09007KT CAVOK 20/08 Q1027
EBFN - Koksijde (bel-Af, Belgium
Distance from station: N 105km
Mise à jour: 07/04/2020 17:25
Partiellement nuageux
Partiellement nuageux
 Vent NNE
Vent: NNE 15 km/h
Température: 19°C
Point de rosée: 8°C
Humidité: 49%
Baromètre: 1028 hPa
Clouds: Partiellement nuageux
Visibility: 10 km
Cloud details: Partiellement nuageux 8230 m
2020/04/07 15:25 EBFN 071525Z 03008KT 9999 SCT270 19/08 Q1028 BLU BLU
 
EBOS - Oostende Airport, Belgium
Distance from station: N 119km
Mise à jour: 07/04/2020 17:20
Clair
Clair
 Vent NNE
Vent: NNE 15 km/h
Température: 17°C
Point de rosée: 6°C
Humidité: 49%
Baromètre: 1028 hPa
Résumé: Clair
Visibility: greater than 10 km
2020/04/07 15:20 EBOS 071520Z 03008KT CAVOK 17/06 Q1028 NOSIG
EBCI - Charleroi/Gossel, Belgium
Distance from station: ENE 124km
Mise à jour: 07/04/2020 17:20
Clair
Clair
 Vent NE
Vent: NE 19 km/h
Température: 20°C
Point de rosée: 8°C
Humidité: 46%
Baromètre: 1028 hPa
Résumé: Clair
Visibility: greater than 10 km
2020/04/07 15:20 EBCI 071520Z AUTO 05010KT 020V080 CAVOK 20/08 Q1028
LFPG - Charles De Gaull, France
Distance from station: S 125km
Mise à jour: 07/04/2020 17:30
Clair
Clair
 Vent E
Vent: E 15 km/h
Température: 22°C
Point de rosée: 6°C
Humidité: 36%
Baromètre: 1025 hPa
Résumé: Clair
Visibility: greater than 10 km
2020/04/07 15:30 LFPG 071530Z AUTO 10008KT 060V120 CAVOK 22/06 Q1025 NOSIG
 
LFPT - Cormeilles Vexin, France
Distance from station: SSO 127km
Mise à jour: 07/04/2020 17:30
Clair
Clair
 Vent E
Vent: E 17 km/h
Température: 22°C
Point de rosée: 8°C
Humidité: 41%
Baromètre: 1025 hPa
Résumé: Clair
Visibility: greater than 10 km
2020/04/07 15:30 LFPT 071530Z AUTO 10009KT CAVOK 22/08 Q1025
LFPB - Paris/Le Bourget, France
Distance from station: S 132km
Mise à jour: 07/04/2020 17:30
Clair
Clair
 Vent ENE
Vent: ENE 17 km/h
Température: 23°C
Point de rosée: 9°C
Humidité: 41%
Baromètre: 1025 hPa
Résumé: Clair
Visibility: greater than 10 km
2020/04/07 15:30 LFPB 071530Z AUTO 06009KT CAVOK 23/09 Q1025
EBFS - Florennes (bel-A, Belgium
Distance from station: E 133km
Mise à jour: 07/04/2020 17:25
Quelques nuages
Quelques nuages
 Vent ENE
Vent: ENE 15 km/h
Température: 20°C
Point de rosée: 8°C
Humidité: 46%
Baromètre: 1027 hPa
Clouds: Quelques nuages
Visibility: 10 km
Cloud details: Quelques nuages 2286 m
2020/04/07 15:25 EBFS 071525Z AUTO 06008KT 9999 FEW075/// 20/08 Q1027 BLU
 
LFQA - Reims/Prunay, France
Distance from station: SE 143km
Mise à jour: 07/04/2020 17:30
Clair
Clair
 Vent varies
Vent: varies 4 km/h
Température: 24°C
Point de rosée: 8°C
Humidité: 36%
Baromètre: 1025 hPa
Résumé: Clair
Visibility: greater than 10 km
2020/04/07 15:30 LFQA 071530Z AUTO VRB02KT CAVOK 24/08 Q1025
LFOP - Rouen/Boos (aut), France
Distance from station: SO 144km
Mise à jour: 07/04/2020 17:30
Clair
Clair
 Vent E
Vent: E 19 km/h
Température: 20°C
Point de rosée: 9°C
Humidité: 49%
Baromètre: 1025 hPa
Résumé: Clair
Visibility: greater than 10 km
2020/04/07 15:30 LFOP 071530Z AUTO 10010KT CAVOK 20/09 Q1025
EBBR - Brussels Nationa, Belgium
Distance from station: NE 148km
Mise à jour: 07/04/2020 17:20
Clair
Clair
 Vent ESE
Vent: ESE 9 km/h
Température: 20°C
Point de rosée: 8°C
Humidité: 46%
Baromètre: 1028 hPa
Résumé: Clair
Visibility: greater than 10 km
2020/04/07 15:20 EBBR 071520Z 12005KT 070V160 CAVOK 20/08 Q1028 NOSIG
 
EBBE - Beauvechain (baf, Belgium
Distance from station: ENE 156km
Mise à jour: 07/04/2020 17:25
Clair
Clair
 Vent ENE
Vent: ENE 9 km/h
Température: 19°C
Point de rosée: 9°C
Humidité: 52%
Baromètre: 1028 hPa
Clouds: Clair
Visibility: 10 km
2020/04/07 15:25 EBBE 071525Z AUTO 06005KT 9999 NCD 19/09 Q1028 BLU
EHFS - Vlissingen, Netherlands
Distance from station: NNE 157km
Mise à jour: 07/04/2020 17:25
Partiellement nuageux
Partiellement nuageux
 Vent E
Vent: E 13 km/h
Température: 17°C
Point de rosée: 4°C
Humidité: 42%
Baromètre: 1028 hPa
Clouds: Partiellement nuageux
Visibility: 10 km
2020/04/07 15:25 EHFS 071525Z AUTO 10007KT 9999 NSC 17/04 Q1028
LFPV - Villacoublay/Vel, France
Distance from station: SSO 157km
Mise à jour: 07/04/2020 17:30
Clair
Clair
 Vent E
Vent: E 15 km/h
Température: 22°C
Point de rosée: 5°C
Humidité: 33%
Baromètre: 1025 hPa
Résumé: Clair
Visibility: greater than 10 km
2020/04/07 15:30 LFPV 071530Z AUTO 10008KT CAVOK 22/05 Q1025 NOSIG
 
EGMD - Lydd Airport, United Kingdom
Distance from station: NO 160km
Mise à jour: 07/04/2020 17:20
Clair
Clair
 Vent ENE
Vent: ENE 17 km/h
Température: 16°C
Point de rosée: 8°C
Humidité: 59%
Baromètre: 1028 hPa
Clouds: Clair
Visibility: 10 km
2020/04/07 15:20 EGMD 071520Z AUTO 07009KT 9999 NCD 16/08 Q1028